sensor_id;sensor_type;location;lat;lon;timestamp;pressure;altitude;pressure_sealevel;temperature;humidity
63954;BME280;50128;52.094;5.232;2023-04-24T00:00:08;96706.0;;;-8.35;100.0
63954;BME280;50128;52.094;5.232;2023-04-24T00:03:21;96717.0;;;-8.44;100.0
63954;BME280;50128;52.094;5.232;2023-04-24T00:04:58;96705.0;;;-8.57;100.0
63954;BME280;50128;52.094;5.232;2023-04-24T00:06:35;96710.0;;;-8.46;100.0
63954;BME280;50128;52.094;5.232;2023-04-24T00:08:11;96716.0;;;-8.37;100.0
63954;BME280;50128;52.094;5.232;2023-04-24T00:11:25;96709.0;;;-8.49;100.0
63954;BME280;50128;52.094;5.232;2023-04-24T00:13:02;96714.0;;;-8.43;100.0
63954;BME280;50128;52.094;5.232;2023-04-24T00:14:38;96723.0;;;-8.41;100.0
63954;BME280;50128;52.094;5.232;2023-04-24T00:17:50;96721.0;;;-8.54;100.0
63954;BME280;50128;52.094;5.232;2023-04-24T00:19:26;96721.0;;;-8.42;100.0
63954;BME280;50128;52.094;5.232;2023-04-24T00:21:04;96709.0;;;-8.43;100.0
63954;BME280;50128;52.094;5.232;2023-04-24T00:24:17;96710.0;;;-8.44;100.0
63954;BME280;50128;52.094;5.232;2023-04-24T00:25:54;96711.0;;;-8.46;100.0
63954;BME280;50128;52.094;5.232;2023-04-24T00:27:30;96719.0;;;-8.41;100.0
63954;BME280;50128;52.094;5.232;2023-04-24T00:29:07;96721.0;;;-8.33;100.0
63954;BME280;50128;52.094;5.232;2023-04-24T00:32:21;96718.0;;;-8.35;100.0
63954;BME280;50128;52.094;5.232;2023-04-24T00:33:57;96726.0;;;-8.48;100.0
63954;BME280;50128;52.094;5.232;2023-04-24T00:35:34;96730.0;;;-8.37;100.0
63954;BME280;50128;52.094;5.232;2023-04-24T00:38:46;96727.0;;;-8.32;100.0
63954;BME280;50128;52.094;5.232;2023-04-24T00:40:22;96732.0;;;-8.34;100.0
63954;BME280;50128;52.094;5.232;2023-04-24T00:41:59;96729.0;;;-8.34;100.0
63954;BME280;50128;52.094;5.232;2023-04-24T00:45:12;96735.0;;;-8.44;100.0
63954;BME280;50128;52.094;5.232;2023-04-24T00:46:49;96721.0;;;-8.52;100.0
63954;BME280;50128;52.094;5.232;2023-04-24T00:48:27;96721.0;;;-8.43;100.0
63954;BME280;50128;52.094;5.232;2023-04-24T00:50:04;96738.0;;;-8.5;100.0
63954;BME280;50128;52.094;5.232;2023-04-24T00:53:19;96732.0;;;-8.37;100.0
63954;BME280;50128;52.094;5.232;2023-04-24T00:54:55;96730.0;;;-8.42;100.0
63954;BME280;50128;52.094;5.232;2023-04-24T00:56:33;96746.0;;;-8.42;100.0
63954;BME280;50128;52.094;5.232;2023-04-24T00:59:47;96755.0;;;-8.33;100.0
63954;BME280;50128;52.094;5.232;2023-04-24T01:01:23;96754.0;;;-8.4;100.0
63954;BME280;50128;52.094;5.232;2023-04-24T01:03:01;96749.0;;;-8.43;100.0
63954;BME280;50128;52.094;5.232;2023-04-24T01:04:41;96736.0;;;-8.47;100.0
63954;BME280;50128;52.094;5.232;2023-04-24T01:07:56;96735.0;;;-8.41;100.0
63954;BME280;50128;52.094;5.232;2023-04-24T01:09:33;96744.0;;;-8.37;100.0
63954;BME280;50128;52.094;5.232;2023-04-24T01:11:11;96749.0;;;-8.38;100.0
63954;BME280;50128;52.094;5.232;2023-04-24T01:14:23;96747.0;;;-8.39;100.0
63954;BME280;50128;52.094;5.232;2023-04-24T01:16:00;96740.0;;;-8.29;100.0
63954;BME280;50128;52.094;5.232;2023-04-24T01:17:39;96740.0;;;-8.32;100.0
63954;BME280;50128;52.094;5.232;2023-04-24T01:20:57;96748.0;;;-8.3;100.0
63954;BME280;50128;52.094;5.232;2023-04-24T01:22:39;96740.0;;;-8.31;100.0
63954;BME280;50128;52.094;5.232;2023-04-24T01:24:16;96748.0;;;-8.21;100.0
63954;BME280;50128;52.094;5.232;2023-04-24T01:25:54;96743.0;;;-8.22;100.0
63954;BME280;50128;52.094;5.232;2023-04-24T01:29:08;96745.0;;;-8.24;100.0
63954;BME280;50128;52.094;5.232;2023-04-24T01:30:45;96752.0;;;-8.24;100.0
63954;BME280;50128;52.094;5.232;2023-04-24T01:32:22;96750.0;;;-8.31;100.0
63954;BME280;50128;52.094;5.232;2023-04-24T01:37:13;96757.0;;;-8.21;100.0
63954;BME280;50128;52.094;5.232;2023-04-24T01:38:50;96756.0;;;-8.09;100.0
63954;BME280;50128;52.094;5.232;2023-04-24T01:40:27;96749.0;;;-8.13;100.0
63954;BME280;50128;52.094;5.232;2023-04-24T01:43:41;96745.0;;;-8.25;100.0
63954;BME280;50128;52.094;5.232;2023-04-24T01:45:18;96755.0;;;-8.12;100.0
63954;BME280;50128;52.094;5.232;2023-04-24T01:46:55;96740.0;;;-8.24;100.0
63954;BME280;50128;52.094;5.232;2023-04-24T01:50:10;96743.0;;;-8.22;100.0
63954;BME280;50128;52.094;5.232;2023-04-24T01:51:47;96742.0;;;-8.19;100.0
63954;BME280;50128;52.094;5.232;2023-04-24T01:53:24;96754.0;;;-8.12;100.0
63954;BME280;50128;52.094;5.232;2023-04-24T01:55:02;96741.0;;;-8.22;100.0
63954;BME280;50128;52.094;5.232;2023-04-24T01:58:19;96751.0;;;-8.25;100.0
63954;BME280;50128;52.094;5.232;2023-04-24T01:59:56;96746.0;;;-8.33;100.0
63954;BME280;50128;52.094;5.232;2023-04-24T02:01:34;96744.0;;;-8.3;100.0
63954;BME280;50128;52.094;5.232;2023-04-24T02:03:11;96748.0;;;-8.25;100.0
63954;BME280;50128;52.094;5.232;2023-04-24T02:06:23;96739.0;;;-8.26;100.0
63954;BME280;50128;52.094;5.232;2023-04-24T02:07:59;96746.0;;;-8.35;100.0
63954;BME280;50128;52.094;5.232;2023-04-24T02:09:37;96750.0;;;-8.33;100.0
63954;BME280;50128;52.094;5.232;2023-04-24T02:12:49;96751.0;;;-8.29;100.0
63954;BME280;50128;52.094;5.232;2023-04-24T02:14:26;96752.0;;;-8.3;100.0
63954;BME280;50128;52.094;5.232;2023-04-24T02:16:02;96743.0;;;-8.37;100.0
63954;BME280;50128;52.094;5.232;2023-04-24T02:19:15;96752.0;;;-8.22;100.0
63954;BME280;50128;52.094;5.232;2023-04-24T02:20:52;96753.0;;;-8.16;100.0
63954;BME280;50128;52.094;5.232;2023-04-24T02:22:29;96760.0;;;-8.13;100.0
63954;BME280;50128;52.094;5.232;2023-04-24T02:25:42;96765.0;;;-8.16;100.0
63954;BME280;50128;52.094;5.232;2023-04-24T02:27:18;96750.0;;;-8.33;100.0
63954;BME280;50128;52.094;5.232;2023-04-24T02:28:55;96772.0;;;-8.23;100.0
63954;BME280;50128;52.094;5.232;2023-04-24T02:30:32;96756.0;;;-8.24;100.0
63954;BME280;50128;52.094;5.232;2023-04-24T02:33:45;96748.0;;;-8.21;100.0
63954;BME280;50128;52.094;5.232;2023-04-24T02:35:21;96744.0;;;-8.27;100.0
63954;BME280;50128;52.094;5.232;2023-04-24T02:36:58;96744.0;;;-8.29;100.0
63954;BME280;50128;52.094;5.232;2023-04-24T02:40:12;96748.0;;;-8.16;100.0
63954;BME280;50128;52.094;5.232;2023-04-24T02:41:48;96740.0;;;-8.27;100.0
63954;BME280;50128;52.094;5.232;2023-04-24T02:43:25;96758.0;;;-8.19;100.0
63954;BME280;50128;52.094;5.232;2023-04-24T02:45:03;96743.0;;;-8.15;100.0
63954;BME280;50128;52.094;5.232;2023-04-24T02:48:16;96736.0;;;-8.21;100.0
63954;BME280;50128;52.094;5.232;2023-04-24T02:49:52;96746.0;;;-8.23;100.0
63954;BME280;50128;52.094;5.232;2023-04-24T02:51:28;96761.0;;;-8.29;100.0
63954;BME280;50128;52.094;5.232;2023-04-24T02:54:43;96745.0;;;-8.33;100.0
63954;BME280;50128;52.094;5.232;2023-04-24T02:56:19;96752.0;;;-8.25;100.0
63954;BME280;50128;52.094;5.232;2023-04-24T02:57:56;96749.0;;;-8.26;100.0
63954;BME280;50128;52.094;5.232;2023-04-24T03:01:08;96758.0;;;-8.32;100.0
63954;BME280;50128;52.094;5.232;2023-04-24T03:02:45;96754.0;;;-8.29;100.0
63954;BME280;50128;52.094;5.232;2023-04-24T03:04:22;96755.0;;;-8.3;100.0
63954;BME280;50128;52.094;5.232;2023-04-24T03:05:59;96753.0;;;-8.39;100.0
63954;BME280;50128;52.094;5.232;2023-04-24T03:09:12;96752.0;;;-8.36;100.0
63954;BME280;50128;52.094;5.232;2023-04-24T03:10:49;96761.0;;;-8.29;100.0
63954;BME280;50128;52.094;5.232;2023-04-24T03:12:26;96754.0;;;-8.27;100.0
63954;BME280;50128;52.094;5.232;2023-04-24T03:15:39;96750.0;;;-8.29;100.0
63954;BME280;50128;52.094;5.232;2023-04-24T03:17:17;96752.0;;;-8.37;100.0
63954;BME280;50128;52.094;5.232;2023-04-24T03:18:54;96744.0;;;-8.36;100.0
63954;BME280;50128;52.094;5.232;2023-04-24T03:22:07;96747.0;;;-8.26;100.0
63954;BME280;50128;52.094;5.232;2023-04-24T03:23:44;96740.0;;;-8.31;100.0
63954;BME280;50128;52.094;5.232;2023-04-24T03:25:20;96738.0;;;-8.36;100.0
63954;BME280;50128;52.094;5.232;2023-04-24T03:26:57;96747.0;;;-8.33;100.0
63954;BME280;50128;52.094;5.232;2023-04-24T03:30:12;96741.0;;;-8.37;100.0
63954;BME280;50128;52.094;5.232;2023-04-24T03:31:49;96748.0;;;-8.37;100.0
63954;BME280;50128;52.094;5.232;2023-04-24T03:33:25;96746.0;;;-8.33;100.0
63954;BME280;50128;52.094;5.232;2023-04-24T03:36:39;96744.0;;;-8.34;100.0
63954;BME280;50128;52.094;5.232;2023-04-24T03:38:15;96747.0;;;-8.22;100.0
63954;BME280;50128;52.094;5.232;2023-04-24T03:39:52;96741.0;;;-8.4;100.0
63954;BME280;50128;52.094;5.232;2023-04-24T03:43:05;96737.0;;;-8.49;100.0
63954;BME280;50128;52.094;5.232;2023-04-24T03:44:41;96743.0;;;-8.39;100.0
63954;BME280;50128;52.094;5.232;2023-04-24T03:46:18;96739.0;;;-8.47;100.0
63954;BME280;50128;52.094;5.232;2023-04-24T04:20:11;96752.0;;;-8.57;100.0
63954;BME280;50128;52.094;5.232;2023-04-24T04:21:47;96755.0;;;-8.58;100.0
63954;BME280;50128;52.094;5.232;2023-04-24T04:23:23;96764.0;;;-8.56;100.0
63954;BME280;50128;52.094;5.232;2023-04-24T04:26:37;96770.0;;;-8.5;100.0
63954;BME280;50128;52.094;5.232;2023-04-24T04:28:14;96763.0;;;-8.56;100.0
63954;BME280;50128;52.094;5.232;2023-04-24T04:29:51;96779.0;;;-8.44;100.0
63954;BME280;50128;52.094;5.232;2023-04-24T04:33:03;96771.0;;;-8.54;100.0
63954;BME280;50128;52.094;5.232;2023-04-24T04:34:39;96781.0;;;-8.48;100.0
63954;BME280;50128;52.094;5.232;2023-04-24T04:36:15;96782.0;;;-8.44;100.0
63954;BME280;50128;52.094;5.232;2023-04-24T04:39:27;96787.0;;;-8.44;100.0
63954;BME280;50128;52.094;5.232;2023-04-24T04:41:04;96784.0;;;-8.5;100.0
63954;BME280;50128;52.094;5.232;2023-04-24T04:42:40;96790.0;;;-8.44;100.0
63954;BME280;50128;52.094;5.232;2023-04-24T04:44:16;96782.0;;;-8.54;100.0
63954;BME280;50128;52.094;5.232;2023-04-24T04:47:28;96797.0;;;-8.44;100.0
63954;BME280;50128;52.094;5.232;2023-04-24T04:49:04;96805.0;;;-8.38;100.0
63954;BME280;50128;52.094;5.232;2023-04-24T04:50:40;96797.0;;;-8.47;100.0
63954;BME280;50128;52.094;5.232;2023-04-24T04:53:53;96803.0;;;-8.36;100.0
63954;BME280;50128;52.094;5.232;2023-04-24T04:55:30;96812.0;;;-8.44;100.0
63954;BME280;50128;52.094;5.232;2023-04-24T04:57:06;96797.0;;;-8.51;100.0
63954;BME280;50128;52.094;5.232;2023-04-24T05:00:18;96811.0;;;-8.47;100.0
63954;BME280;50128;52.094;5.232;2023-04-24T05:01:55;96806.0;;;-8.46;100.0
63954;BME280;50128;52.094;5.232;2023-04-24T05:03:31;96814.0;;;-8.43;100.0
63954;BME280;50128;52.094;5.232;2023-04-24T05:06:45;96833.0;;;-8.32;100.0
63954;BME280;50128;52.094;5.232;2023-04-24T05:08:21;96818.0;;;-8.41;100.0
63954;BME280;50128;52.094;5.232;2023-04-24T05:09:57;96837.0;;;-8.3;100.0
63954;BME280;50128;52.094;5.232;2023-04-24T05:11:33;96837.0;;;-8.17;100.0
63954;BME280;50128;52.094;5.232;2023-04-24T05:14:45;96840.0;;;-8.19;100.0
63954;BME280;50128;52.094;5.232;2023-04-24T05:16:21;96837.0;;;-8.34;100.0
63954;BME280;50128;52.094;5.232;2023-04-24T05:17:57;96844.0;;;-8.32;100.0
63954;BME280;50128;52.094;5.232;2023-04-24T05:21:11;96846.0;;;-8.36;100.0
63954;BME280;50128;52.094;5.232;2023-04-24T05:22:47;96870.0;;;-8.15;100.0
63954;BME280;50128;52.094;5.232;2023-04-24T05:24:23;96867.0;;;-8.27;100.0
63954;BME280;50128;52.094;5.232;2023-04-24T05:27:35;96866.0;;;-8.21;100.0
63954;BME280;50128;52.094;5.232;2023-04-24T05:29:12;96864.0;;;-8.32;100.0
63954;BME280;50128;52.094;5.232;2023-04-24T05:30:48;96869.0;;;-8.14;100.0
63954;BME280;50128;52.094;5.232;2023-04-24T05:32:24;96881.0;;;-8.19;100.0
63954;BME280;50128;52.094;5.232;2023-04-24T05:35:37;96878.0;;;-8.27;100.0
63954;BME280;50128;52.094;5.232;2023-04-24T05:37:13;96881.0;;;-8.25;100.0
63954;BME280;50128;52.094;5.232;2023-04-24T05:38:49;96904.0;;;-8.25;100.0
63954;BME280;50128;52.094;5.232;2023-04-24T05:42:02;96898.0;;;-8.29;100.0
63954;BME280;50128;52.094;5.232;2023-04-24T05:43:38;96907.0;;;-8.32;100.0
63954;BME280;50128;52.094;5.232;2023-04-24T05:45:14;96910.0;;;-8.35;100.0
63954;BME280;50128;52.094;5.232;2023-04-24T05:48:27;96917.0;;;-8.42;100.0
63954;BME280;50128;52.094;5.232;2023-04-24T05:50:03;96924.0;;;-8.38;100.0
63954;BME280;50128;52.094;5.232;2023-04-24T05:51:41;96924.0;;;-8.49;100.0
63954;BME280;50128;52.094;5.232;2023-04-24T05:54:53;96926.0;;;-8.58;100.0
63954;BME280;50128;52.094;5.232;2023-04-24T05:56:29;96930.0;;;-8.65;100.0
63954;BME280;50128;52.094;5.232;2023-04-24T05:58:06;96926.0;;;-8.7;100.0
63954;BME280;50128;52.094;5.232;2023-04-24T05:59:43;96927.0;;;-8.72;100.0
63954;BME280;50128;52.094;5.232;2023-04-24T06:02:55;96942.0;;;-8.65;100.0
63954;BME280;50128;52.094;5.232;2023-04-24T06:04:31;96949.0;;;-8.63;100.0
63954;BME280;50128;52.094;5.232;2023-04-24T06:06:08;96962.0;;;-8.61;100.0
63954;BME280;50128;52.094;5.232;2023-04-24T06:09:20;96968.0;;;-8.55;100.0
63954;BME280;50128;52.094;5.232;2023-04-24T06:10:56;96947.0;;;-8.71;100.0
63954;BME280;50128;52.094;5.232;2023-04-24T06:12:32;96953.0;;;-8.65;100.0
63954;BME280;50128;52.094;5.232;2023-04-24T06:15:45;96951.0;;;-8.77;100.0
63954;BME280;50128;52.094;5.232;2023-04-24T06:17:21;96968.0;;;-8.77;100.0
63954;BME280;50128;52.094;5.232;2023-04-24T06:18:57;96977.0;;;-8.8;100.0
63954;BME280;50128;52.094;5.232;2023-04-24T06:20:33;96984.0;;;-8.87;100.0
63954;BME280;50128;52.094;5.232;2023-04-24T06:23:45;96974.0;;;-8.95;100.0
63954;BME280;50128;52.094;5.232;2023-04-24T06:25:24;96973.0;;;-8.9;100.0
63954;BME280;50128;52.094;5.232;2023-04-24T06:27:01;96994.0;;;-8.74;100.0
63954;BME280;50128;52.094;5.232;2023-04-24T06:30:13;96992.0;;;-8.71;100.0
63954;BME280;50128;52.094;5.232;2023-04-24T06:31:50;97006.0;;;-8.72;100.0
63954;BME280;50128;52.094;5.232;2023-04-24T06:33:26;97005.0;;;-8.88;100.0
63954;BME280;50128;52.094;5.232;2023-04-24T06:36:40;96998.0;;;-8.89;100.0
63954;BME280;50128;52.094;5.232;2023-04-24T06:38:16;97023.0;;;-8.83;100.0
63954;BME280;50128;52.094;5.232;2023-04-24T06:39:52;97036.0;;;-8.73;100.0
63954;BME280;50128;52.094;5.232;2023-04-24T06:41:28;97035.0;;;-8.76;100.0
63954;BME280;50128;52.094;5.232;2023-04-24T06:44:40;97042.0;;;-8.73;100.0
63954;BME280;50128;52.094;5.232;2023-04-24T06:46:16;97029.0;;;-8.77;100.0
63954;BME280;50128;52.094;5.232;2023-04-24T06:47:52;97042.0;;;-8.8;100.0
63954;BME280;50128;52.094;5.232;2023-04-24T06:51:05;97045.0;;;-8.92;100.0
63954;BME280;50128;52.094;5.232;2023-04-24T06:52:41;97054.0;;;-8.95;100.0
63954;BME280;50128;52.094;5.232;2023-04-24T06:54:17;97060.0;;;-8.99;100.0
63954;BME280;50128;52.094;5.232;2023-04-24T06:57:29;97063.0;;;-9.0;100.0
63954;BME280;50128;52.094;5.232;2023-04-24T06:59:06;97071.0;;;-9.05;100.0
63954;BME280;50128;52.094;5.232;2023-04-24T07:00:42;97078.0;;;-9.15;100.0
63954;BME280;50128;52.094;5.232;2023-04-24T07:03:55;97091.0;;;-8.98;100.0
63954;BME280;50128;52.094;5.232;2023-04-24T07:05:31;97091.0;;;-8.98;100.0
63954;BME280;50128;52.094;5.232;2023-04-24T07:07:07;97086.0;;;-9.09;100.0
63954;BME280;50128;52.094;5.232;2023-04-24T07:08:43;97100.0;;;-8.96;100.0
63954;BME280;50128;52.094;5.232;2023-04-24T07:11:55;97102.0;;;-8.94;100.0
63954;BME280;50128;52.094;5.232;2023-04-24T07:13:31;97117.0;;;-8.98;100.0
63954;BME280;50128;52.094;5.232;2023-04-24T07:15:09;97117.0;;;-8.93;100.0
63954;BME280;50128;52.094;5.232;2023-04-24T07:18:22;97115.0;;;-8.96;100.0
63954;BME280;50128;52.094;5.232;2023-04-24T07:19:58;97117.0;;;-9.02;100.0
63954;BME280;50128;52.094;5.232;2023-04-24T07:21:34;97127.0;;;-8.99;100.0
63954;BME280;50128;52.094;5.232;2023-04-24T07:24:46;97124.0;;;-9.09;100.0
63954;BME280;50128;52.094;5.232;2023-04-24T07:26:22;97139.0;;;-8.93;100.0
63954;BME280;50128;52.094;5.232;2023-04-24T07:28:00;97146.0;;;-8.84;100.0
63954;BME280;50128;52.094;5.232;2023-04-24T07:29:36;97146.0;;;-8.83;100.0
63954;BME280;50128;52.094;5.232;2023-04-24T07:32:49;97139.0;;;-8.84;100.0
63954;BME280;50128;52.094;5.232;2023-04-24T07:34:25;97146.0;;;-8.81;100.0
63954;BME280;50128;52.094;5.232;2023-04-24T07:36:01;97156.0;;;-8.8;100.0
63954;BME280;50128;52.094;5.232;2023-04-24T07:39:15;97153.0;;;-9.01;100.0
63954;BME280;50128;52.094;5.232;2023-04-24T07:40:51;97145.0;;;-9.14;100.0
63954;BME280;50128;52.094;5.232;2023-04-24T07:42:28;97162.0;;;-9.0;100.0
63954;BME280;50128;52.094;5.232;2023-04-24T07:45:40;97176.0;;;-9.06;100.0
63954;BME280;50128;52.094;5.232;2023-04-24T07:47:16;97177.0;;;-9.06;100.0
63954;BME280;50128;52.094;5.232;2023-04-24T07:48:52;97177.0;;;-9.14;100.0
63954;BME280;50128;52.094;5.232;2023-04-24T07:50:28;97195.0;;;-9.11;100.0
63954;BME280;50128;52.094;5.232;2023-04-24T07:53:43;97192.0;;;-9.13;100.0
63954;BME280;50128;52.094;5.232;2023-04-24T07:55:19;97200.0;;;-9.08;100.0
63954;BME280;50128;52.094;5.232;2023-04-24T07:56:56;97199.0;;;-9.13;100.0
63954;BME280;50128;52.094;5.232;2023-04-24T08:00:09;97197.0;;;-9.09;100.0
63954;BME280;50128;52.094;5.232;2023-04-24T08:01:45;97209.0;;;-9.02;100.0
63954;BME280;50128;52.094;5.232;2023-04-24T08:03:21;97214.0;;;-9.11;100.0
63954;BME280;50128;52.094;5.232;2023-04-24T08:06:34;97209.0;;;-9.21;100.0
63954;BME280;50128;52.094;5.232;2023-04-24T08:08:10;97231.0;;;-9.18;100.0
63954;BME280;50128;52.094;5.232;2023-04-24T08:09:46;97229.0;;;-9.12;100.0
63954;BME280;50128;52.094;5.232;2023-04-24T08:11:22;97232.0;;;-9.1;100.0
63954;BME280;50128;52.094;5.232;2023-04-24T08:14:35;97229.0;;;-9.19;100.0
63954;BME280;50128;52.094;5.232;2023-04-24T08:16:11;97241.0;;;-9.14;100.0
63954;BME280;50128;52.094;5.232;2023-04-24T08:17:48;97248.0;;;-9.06;100.0
63954;BME280;50128;52.094;5.232;2023-04-24T08:21:00;97254.0;;;-9.17;100.0
63954;BME280;50128;52.094;5.232;2023-04-24T08:22:36;97266.0;;;-9.04;100.0
63954;BME280;50128;52.094;5.232;2023-04-24T08:24:12;97256.0;;;-9.2;100.0
63954;BME280;50128;52.094;5.232;2023-04-24T08:27:25;97268.0;;;-9.16;100.0
63954;BME280;50128;52.094;5.232;2023-04-24T08:29:02;97277.0;;;-8.92;100.0
63954;BME280;50128;52.094;5.232;2023-04-24T08:30:38;97282.0;;;-8.94;100.0
63954;BME280;50128;52.094;5.232;2023-04-24T08:33:51;97288.0;;;-8.97;100.0
63954;BME280;50128;52.094;5.232;2023-04-24T08:35:27;97284.0;;;-8.89;100.0
63954;BME280;50128;52.094;5.232;2023-04-24T08:37:03;97301.0;;;-9.07;100.0
63954;BME280;50128;52.094;5.232;2023-04-24T08:38:39;97305.0;;;-9.06;100.0
63954;BME280;50128;52.094;5.232;2023-04-24T08:41:53;97311.0;;;-9.05;100.0
63954;BME280;50128;52.094;5.232;2023-04-24T08:43:31;97304.0;;;-9.15;100.0
63954;BME280;50128;52.094;5.232;2023-04-24T08:45:10;97300.0;;;-9.15;100.0
63954;BME280;50128;52.094;5.232;2023-04-24T08:48:24;97315.0;;;-8.99;100.0
63954;BME280;50128;52.094;5.232;2023-04-24T08:50:02;97315.0;;;-9.05;100.0
63954;BME280;50128;52.094;5.232;2023-04-24T08:51:39;97313.0;;;-9.02;100.0
63954;BME280;50128;52.094;5.232;2023-04-24T08:53:17;97335.0;;;-9.08;100.0
63954;BME280;50128;52.094;5.232;2023-04-24T08:56:33;97320.0;;;-9.14;100.0
63954;BME280;50128;52.094;5.232;2023-04-24T08:58:10;97327.0;;;-8.99;100.0
63954;BME280;50128;52.094;5.232;2023-04-24T08:59:46;97343.0;;;-8.89;100.0
63954;BME280;50128;52.094;5.232;2023-04-24T09:03:01;97330.0;;;-9.01;100.0
63954;BME280;50128;52.094;5.232;2023-04-24T09:04:40;97323.0;;;-9.0;100.0
63954;BME280;50128;52.094;5.232;2023-04-24T09:06:19;97329.0;;;-8.85;100.0
63954;BME280;50128;52.094;5.232;2023-04-24T09:07:59;97353.0;;;-8.73;100.0
63954;BME280;50128;52.094;5.232;2023-04-24T09:11:16;97360.0;;;-8.71;100.0
63954;BME280;50128;52.094;5.232;2023-04-24T09:12:52;97352.0;;;-8.91;100.0
63954;BME280;50128;52.094;5.232;2023-04-24T09:14:29;97356.0;;;-8.82;100.0
63954;BME280;50128;52.094;5.232;2023-04-24T09:17:43;97345.0;;;-8.8;100.0
63954;BME280;50128;52.094;5.232;2023-04-24T09:19:19;97354.0;;;-8.81;100.0
63954;BME280;50128;52.094;5.232;2023-04-24T09:20:57;97347.0;;;-8.72;100.0
63954;BME280;50128;52.094;5.232;2023-04-24T09:22:34;97357.0;;;-8.68;100.0
63954;BME280;50128;52.094;5.232;2023-04-24T09:25:54;97361.0;;;-8.67;100.0
63954;BME280;50128;52.094;5.232;2023-04-24T09:27:31;97359.0;;;-8.63;100.0
63954;BME280;50128;52.094;5.232;2023-04-24T09:29:14;97377.0;;;-8.52;99.73
63954;BME280;50128;52.094;5.232;2023-04-24T09:32:39;97383.0;;;-8.47;100.0
63954;BME280;50128;52.094;5.232;2023-04-24T09:34:21;97377.0;;;-8.5;97.22
63954;BME280;50128;52.094;5.232;2023-04-24T09:35:58;97387.0;;;-8.59;97.05
63954;BME280;50128;52.094;5.232;2023-04-24T09:37:36;97373.0;;;-8.69;96.8
63954;BME280;50128;52.094;5.232;2023-04-24T09:40:51;97379.0;;;-8.71;97.73
63954;BME280;50128;52.094;5.232;2023-04-24T09:42:29;97376.0;;;-8.58;98.73
63954;BME280;50128;52.094;5.232;2023-04-24T09:44:12;97386.0;;;-8.56;97.14
63954;BME280;50128;52.094;5.232;2023-04-24T09:45:48;97394.0;;;-8.52;96.76
63954;BME280;50128;52.094;5.232;2023-04-24T09:49:08;97391.0;;;-8.62;95.48
63954;BME280;50128;52.094;5.232;2023-04-24T09:50:45;97401.0;;;-8.52;95.01
63954;BME280;50128;52.094;5.232;2023-04-24T09:52:22;97417.0;;;-8.51;92.97
63954;BME280;50128;52.094;5.232;2023-04-24T09:53:58;97402.0;;;-8.38;95.91
63954;BME280;50128;52.094;5.232;2023-04-24T09:57:15;97400.0;;;-8.41;95.58
63954;BME280;50128;52.094;5.232;2023-04-24T09:58:51;97407.0;;;-8.27;91.04
63954;BME280;50128;52.094;5.232;2023-04-24T10:00:29;97413.0;;;-8.24;91.38
63954;BME280;50128;52.094;5.232;2023-04-24T10:03:53;97419.0;;;-8.29;89.62
63954;BME280;50128;52.094;5.232;2023-04-24T10:05:30;97412.0;;;-8.37;89.41
63954;BME280;50128;52.094;5.232;2023-04-24T10:07:08;97425.0;;;-8.29;90.03
63954;BME280;50128;52.094;5.232;2023-04-24T10:08:44;97421.0;;;-8.36;90.67
63954;BME280;50128;52.094;5.232;2023-04-24T10:11:58;97427.0;;;-8.41;91.64
63954;BME280;50128;52.094;5.232;2023-04-24T10:13:35;97432.0;;;-8.33;91.96
63954;BME280;50128;52.094;5.232;2023-04-24T10:15:11;97452.0;;;-8.5;92.55
63954;BME280;50128;52.094;5.232;2023-04-24T10:18:29;97456.0;;;-8.48;94.37
63954;BME280;50128;52.094;5.232;2023-04-24T10:20:06;97449.0;;;-8.56;95.43
63954;BME280;50128;52.094;5.232;2023-04-24T10:21:43;97454.0;;;-8.58;95.53
63954;BME280;50128;52.094;5.232;2023-04-24T10:23:21;97453.0;;;-8.51;93.29
63954;BME280;50128;52.094;5.232;2023-04-24T10:26:35;97452.0;;;-8.47;94.09
63954;BME280;50128;52.094;5.232;2023-04-24T10:28:11;97453.0;;;-8.37;91.75
63954;BME280;50128;52.094;5.232;2023-04-24T10:29:50;97462.0;;;-8.22;90.88
63954;BME280;50128;52.094;5.232;2023-04-24T10:33:08;97452.0;;;-8.15;91.12
63954;BME280;50128;52.094;5.232;2023-04-24T10:34:45;97465.0;;;-8.13;88.71
63954;BME280;50128;52.094;5.232;2023-04-24T10:36:22;97450.0;;;-8.27;86.88
63954;BME280;50128;52.094;5.232;2023-04-24T10:38:02;97465.0;;;-8.08;88.45
63954;BME280;50128;52.094;5.232;2023-04-24T10:41:17;97473.0;;;-7.91;91.82
63954;BME280;50128;52.094;5.232;2023-04-24T10:42:55;97457.0;;;-8.02;88.78
63954;BME280;50128;52.094;5.232;2023-04-24T10:44:36;97466.0;;;-7.84;90.58
63954;BME280;50128;52.094;5.232;2023-04-24T10:46:19;97469.0;;;-7.94;87.52
63954;BME280;50128;52.094;5.232;2023-04-24T10:49:34;97460.0;;;-7.93;88.17
63954;BME280;50128;52.094;5.232;2023-04-24T10:51:12;97472.0;;;-7.85;89.62
63954;BME280;50128;52.094;5.232;2023-04-24T10:52:49;97474.0;;;-7.78;88.09
63954;BME280;50128;52.094;5.232;2023-04-24T10:56:04;97471.0;;;-7.65;88.8
63954;BME280;50128;52.094;5.232;2023-04-24T10:58:01;97480.0;;;-7.45;89.38
63954;BME280;50128;52.094;5.232;2023-04-24T10:59:38;97486.0;;;-7.36;87.08
63954;BME280;50128;52.094;5.232;2023-04-24T11:01:31;97478.0;;;-7.4;84.62
63954;BME280;50128;52.094;5.232;2023-04-24T11:03:24;97480.0;;;-7.5;84.56
63954;BME280;50128;52.094;5.232;2023-04-24T11:05:02;97489.0;;;-7.61;85.85
63954;BME280;50128;52.094;5.232;2023-04-24T11:08:22;97491.0;;;-7.58;86.33
63954;BME280;50128;52.094;5.232;2023-04-24T11:10:00;97485.0;;;-7.86;90.0
63954;BME280;50128;52.094;5.232;2023-04-24T11:11:37;97499.0;;;-7.92;92.22
63954;BME280;50128;52.094;5.232;2023-04-24T11:15:01;97509.0;;;-8.08;97.11
63954;BME280;50128;52.094;5.232;2023-04-24T11:16:43;97525.0;;;-8.22;98.41
63954;BME280;50128;52.094;5.232;2023-04-24T11:18:37;97497.0;;;-8.59;100.0
63954;BME280;50128;52.094;5.232;2023-04-24T11:20:17;97511.0;;;-8.72;100.0
63954;BME280;50128;52.094;5.232;2023-04-24T11:21:56;97498.0;;;-8.97;100.0
63954;BME280;50128;52.094;5.232;2023-04-24T11:25:11;97512.0;;;-8.9;100.0
63954;BME280;50128;52.094;5.232;2023-04-24T11:26:47;97514.0;;;-8.86;100.0
63954;BME280;50128;52.094;5.232;2023-04-24T11:28:24;97516.0;;;-8.95;100.0
63954;BME280;50128;52.094;5.232;2023-04-24T11:31:39;97520.0;;;-8.81;100.0
63954;BME280;50128;52.094;5.232;2023-04-24T11:33:19;97517.0;;;-8.87;100.0
63954;BME280;50128;52.094;5.232;2023-04-24T11:34:57;97541.0;;;-8.65;100.0
63954;BME280;50128;52.094;5.232;2023-04-24T11:36:34;97528.0;;;-8.7;96.71
63954;BME280;50128;52.094;5.232;2023-04-24T11:39:51;97510.0;;;-8.71;93.84
63954;BME280;50128;52.094;5.232;2023-04-24T11:41:29;97535.0;;;-8.39;94.24
63954;BME280;50128;52.094;5.232;2023-04-24T11:43:06;97528.0;;;-8.23;94.47
63954;BME280;50128;52.094;5.232;2023-04-24T11:46:20;97531.0;;;-8.01;93.01
63954;BME280;50128;52.094;5.232;2023-04-24T11:47:57;97529.0;;;-7.98;91.22